Terminal Aerodrome Forecast
Issued by NWS

Home | Current Version | Previous Version | Text Only | Print | Product List | Glossary On
Versions: 1 2 3 4 5 6 7 8 9 10 11 12 13 14
000
FTUS41 KBTV 192300
TAFRUT
TAF
KRUT 192337Z 2000/2024 13009KT P6SM SCT200
     FM200400 14014G20KT P6SM SCT200
     FM201100 15014G24KT P6SM BKN050 BKN250
     FM201400 17014G24KT P6SM BKN050 BKN250
      AMD LTD TO CLD VIS AND WIND=

USA.gov is the U.S. government's official web portal to all federal, state and local government web resources and services.